createdAt,value
2018-04-08T00:01:37.003Z,12.40
2018-04-08T00:04:05.330Z,15.30
2018-04-08T00:06:33.698Z,12.80
2018-04-08T00:09:02.044Z,13.43
2018-04-08T00:11:30.435Z,11.33
2018-04-08T00:13:58.768Z,14.27
2018-04-08T00:16:27.154Z,14.60
2018-04-08T00:18:55.552Z,10.80
2018-04-08T00:21:23.904Z,12.13
2018-04-08T00:23:52.346Z,14.97
2018-04-08T00:26:20.659Z,12.40
2018-04-08T00:28:49.001Z,12.70
2018-04-08T00:31:17.329Z,12.00
2018-04-08T00:33:45.732Z,17.47
2018-04-08T00:36:21.219Z,14.50
2018-04-08T00:38:49.586Z,18.50
2018-04-08T00:41:17.934Z,16.17
2018-04-08T00:43:46.288Z,14.57
2018-04-08T00:46:14.607Z,11.90
2018-04-08T00:48:42.916Z,15.47
2018-04-08T00:51:11.301Z,13.63
2018-04-08T00:53:39.630Z,16.43
2018-04-08T00:56:07.958Z,12.43
2018-04-08T00:58:36.396Z,15.37
2018-04-08T01:01:04.753Z,18.77
2018-04-08T01:03:33.066Z,14.70
2018-04-08T01:06:01.440Z,12.50
2018-04-08T01:08:29.759Z,12.83
2018-04-08T01:10:58.095Z,14.17
2018-04-08T01:13:26.491Z,14.93
2018-04-08T01:15:54.819Z,14.47
2018-04-08T01:18:23.156Z,16.97
2018-04-08T01:20:51.496Z,12.67
2018-04-08T01:23:19.832Z,17.53
2018-04-08T01:25:48.166Z,16.37
2018-04-08T01:28:16.519Z,15.93
2018-04-08T01:30:44.854Z,12.40
2018-04-08T01:33:13.186Z,12.77
2018-04-08T01:35:41.542Z,12.33
2018-04-08T01:38:09.949Z,15.67
2018-04-08T01:40:38.305Z,12.63
2018-04-08T01:43:06.650Z,15.13
2018-04-08T01:45:34.999Z,15.77
2018-04-08T01:48:03.478Z,14.10
2018-04-08T01:50:31.799Z,14.10
2018-04-08T01:53:00.200Z,16.33
2018-04-08T01:55:28.535Z,15.63
2018-04-08T01:57:56.958Z,19.60
2018-04-08T02:00:25.270Z,15.77
2018-04-08T02:02:53.613Z,12.07
2018-04-08T02:05:21.952Z,13.87
2018-04-08T02:07:50.359Z,13.87
2018-04-08T02:10:18.711Z,13.87
2018-04-08T02:12:47.043Z,15.27
2018-04-08T02:15:15.360Z,13.50
2018-04-08T02:17:43.801Z,14.83
2018-04-08T02:20:12.125Z,14.87
2018-04-08T02:22:40.467Z,15.00
2018-04-08T02:25:08.797Z,14.07
2018-04-08T02:27:37.113Z,13.30
2018-04-08T02:30:05.436Z,16.03
2018-04-08T02:32:33.839Z,15.10
2018-04-08T02:35:02.187Z,15.17
2018-04-08T02:37:30.510Z,14.17
2018-04-08T02:40:02.411Z,12.23
2018-04-08T02:42:30.753Z,13.27
2018-04-08T02:44:59.201Z,15.27
2018-04-08T02:47:27.524Z,17.33
2018-04-08T02:49:55.896Z,15.20
2018-04-08T02:52:24.233Z,17.43
2018-04-08T02:54:52.581Z,16.27
2018-04-08T02:57:20.911Z,14.57
2018-04-08T02:59:49.241Z,19.73
2018-04-08T03:02:17.589Z,18.87
2018-04-08T03:04:45.974Z,15.27
2018-04-08T03:07:14.600Z,14.63
2018-04-08T03:09:42.913Z,14.77
2018-04-08T03:12:11.240Z,15.73
2018-04-08T03:14:39.720Z,19.47
2018-04-08T03:17:08.080Z,18.33
2018-04-08T03:19:36.403Z,18.43
2018-04-08T03:22:05.099Z,17.20
2018-04-08T03:24:33.428Z,18.27
2018-04-08T03:27:01.762Z,15.40
2018-04-08T03:29:30.151Z,15.33
2018-04-08T03:31:58.491Z,18.53
2018-04-08T03:34:26.850Z,15.17
2018-04-08T03:36:55.189Z,17.80
2018-04-08T03:39:23.571Z,14.87
2018-04-08T03:41:51.892Z,14.20
2018-04-08T03:44:20.236Z,14.43
2018-04-08T03:46:48.551Z,15.17
2018-04-08T03:49:16.886Z,16.93
2018-04-08T03:51:45.232Z,13.83
2018-04-08T03:54:13.581Z,15.03
2018-04-08T03:56:41.925Z,17.47
2018-04-08T03:59:10.244Z,13.37
2018-04-08T04:01:38.584Z,15.93
2018-04-08T04:04:06.924Z,13.93
2018-04-08T04:06:35.237Z,15.17
2018-04-08T04:09:03.567Z,14.47
2018-04-08T04:11:32.668Z,16.13
2018-04-08T04:14:01.001Z,16.20
2018-04-08T04:16:29.342Z,14.70
2018-04-08T04:19:09.558Z,17.27
2018-04-08T04:21:49.808Z,16.37
2018-04-08T04:24:30.016Z,15.97
2018-04-08T04:26:58.357Z,14.57
2018-04-08T04:29:26.671Z,15.63
2018-04-08T04:31:55.032Z,15.90
2018-04-08T04:34:23.442Z,14.97
2018-04-08T04:36:51.816Z,16.80
2018-04-08T04:39:20.143Z,15.20
2018-04-08T04:41:48.487Z,16.23
2018-04-08T04:44:16.845Z,15.90
2018-04-08T04:46:45.163Z,14.57
2018-04-08T04:49:13.510Z,14.70
2018-04-08T04:51:41.844Z,17.40
2018-04-08T04:54:10.403Z,15.73
2018-04-08T04:56:38.748Z,16.23
2018-04-08T04:59:07.079Z,15.87
2018-04-08T05:01:35.411Z,14.73
2018-04-08T05:04:03.792Z,14.77
2018-04-08T05:06:32.177Z,17.73
2018-04-08T05:09:00.592Z,15.27
2018-04-08T05:11:28.909Z,17.30
2018-04-08T05:13:57.268Z,15.43
2018-04-08T05:16:25.627Z,16.57
2018-04-08T05:18:53.976Z,17.10
2018-04-08T05:21:22.329Z,17.37
2018-04-08T05:23:50.675Z,15.57
2018-04-08T05:26:19.091Z,14.77
2018-04-08T05:28:47.457Z,16.90
2018-04-08T05:31:15.805Z,15.57
2018-04-08T05:33:44.163Z,16.47
2018-04-08T05:36:12.495Z,18.60
2018-04-08T05:38:40.835Z,15.93
2018-04-08T05:41:09.229Z,15.73
2018-04-08T05:43:37.622Z,17.20
2018-04-08T05:46:06.089Z,16.53
2018-04-08T05:48:34.748Z,15.77
2018-04-08T05:51:03.080Z,17.07
2018-04-08T05:53:31.421Z,17.47
2018-04-08T05:55:59.766Z,17.37
2018-04-08T05:58:28.103Z,15.50
2018-04-08T06:00:56.444Z,14.97
2018-04-08T06:03:24.901Z,15.83
2018-04-08T06:05:53.425Z,14.27
2018-04-08T06:08:21.746Z,16.67
2018-04-08T06:10:50.148Z,16.20
2018-04-08T06:13:18.547Z,15.70
2018-04-08T06:15:46.897Z,16.17
2018-04-08T06:18:15.225Z,16.37
2018-04-08T06:20:43.572Z,18.63
2018-04-08T06:23:12.087Z,14.97
2018-04-08T06:25:41.627Z,17.40
2018-04-08T06:30:49.622Z,16.43
2018-04-08T06:33:18.000Z,16.57
2018-04-08T06:35:46.407Z,17.20
2018-04-08T06:38:14.746Z,15.77
2018-04-08T06:40:43.211Z,14.77
2018-04-08T06:43:11.561Z,14.50
2018-04-08T06:45:39.893Z,16.30
2018-04-08T06:48:08.230Z,15.43
2018-04-08T06:50:36.555Z,15.10
2018-04-08T06:53:04.937Z,15.90
2018-04-08T06:55:33.328Z,14.00
2018-04-08T06:58:01.874Z,17.60
2018-04-08T07:00:30.177Z,16.33
2018-04-08T07:02:58.561Z,16.40
2018-04-08T07:05:26.916Z,17.07
2018-04-08T07:07:55.266Z,17.60
2018-04-08T07:10:23.577Z,15.13
2018-04-08T07:12:51.931Z,15.00
2018-04-08T07:15:20.471Z,15.17
2018-04-08T07:17:48.812Z,14.67
2018-04-08T07:20:17.127Z,15.47
2018-04-08T07:22:45.548Z,15.77
2018-04-08T07:25:13.891Z,15.70
2018-04-08T07:27:42.270Z,12.63
2018-04-08T07:30:10.631Z,14.57
2018-04-08T07:32:39.081Z,14.77
2018-04-08T07:35:07.441Z,14.70
2018-04-08T07:37:35.780Z,14.40
2018-04-08T07:40:04.211Z,14.33
2018-04-08T07:42:32.648Z,14.80
2018-04-08T07:45:01.083Z,14.27
2018-04-08T07:47:29.592Z,15.60
2018-04-08T07:49:57.959Z,15.20
2018-04-08T07:52:26.269Z,14.40
2018-04-08T07:54:54.605Z,14.10
2018-04-08T07:57:22.979Z,13.63
2018-04-08T07:59:51.304Z,12.67
2018-04-08T08:02:19.657Z,13.83
2018-04-08T08:04:47.984Z,14.53
2018-04-08T08:07:16.304Z,13.47
2018-04-08T08:09:44.825Z,13.60
2018-04-08T08:12:13.162Z,13.63
2018-04-08T08:14:41.576Z,14.93
2018-04-08T08:17:09.911Z,14.07
2018-04-08T08:19:38.269Z,15.27
2018-04-08T08:22:06.813Z,15.07
2018-04-08T08:24:35.352Z,13.60
2018-04-08T08:27:03.786Z,14.57
2018-04-08T08:29:32.297Z,16.90
2018-04-08T08:32:00.636Z,15.03
2018-04-08T08:34:29.166Z,16.73
2018-04-08T08:36:57.628Z,14.33
2018-04-08T08:39:26.016Z,15.87
2018-04-08T08:41:54.325Z,15.43
2018-04-08T08:44:22.702Z,15.63
2018-04-08T08:46:51.075Z,14.93
2018-04-08T08:49:19.442Z,14.57
2018-04-08T08:51:47.754Z,15.93
2018-04-08T08:54:16.219Z,15.87
2018-04-08T08:56:44.844Z,14.47
2018-04-08T08:59:13.172Z,16.20
2018-04-08T09:01:41.525Z,16.17
2018-04-08T09:04:09.878Z,16.23
2018-04-08T09:06:38.273Z,17.27
2018-04-08T09:09:06.577Z,15.43
2018-04-08T09:11:35.019Z,15.43
2018-04-08T09:14:03.588Z,15.90
2018-04-08T09:16:31.921Z,16.00
2018-04-08T09:19:01.617Z,16.63
2018-04-08T09:21:35.713Z,16.47
2018-04-08T09:24:05.021Z,16.13
2018-04-08T09:26:33.426Z,14.63
2018-04-08T09:29:01.802Z,15.33
2018-04-08T09:31:30.379Z,15.33
2018-04-08T09:33:58.935Z,13.57
2018-04-08T09:36:27.958Z,13.60
2018-04-08T09:38:56.299Z,13.93
2018-04-08T09:41:24.712Z,13.83
2018-04-08T09:43:53.044Z,13.60
2018-04-08T09:46:21.384Z,14.60
2018-04-08T09:48:50.034Z,14.30
2018-04-08T09:51:19.154Z,15.30
2018-04-08T09:53:47.486Z,16.57
2018-04-08T09:56:15.818Z,17.23
2018-04-08T09:58:44.145Z,14.97
2018-04-08T10:01:27.124Z,14.33
2018-04-08T10:03:55.687Z,15.37
2018-04-08T10:06:24.271Z,16.17
2018-04-08T10:08:52.589Z,16.90
2018-04-08T10:11:20.996Z,15.50
2018-04-08T10:13:49.308Z,15.00
2018-04-08T10:16:17.848Z,16.73
2018-04-08T10:18:46.454Z,17.03
2018-04-08T10:21:14.821Z,16.77
2018-04-08T10:23:43.158Z,15.53
2018-04-08T10:26:12.334Z,15.43
2018-04-08T10:28:40.679Z,15.50
2018-04-08T10:31:09.093Z,17.13
2018-04-08T10:33:37.573Z,17.23
2018-04-08T10:36:05.927Z,17.13
2018-04-08T10:38:34.332Z,16.43
2018-04-08T10:41:02.681Z,17.53
2018-04-08T10:43:31.074Z,16.80
2018-04-08T10:45:59.392Z,18.47
2018-04-08T10:48:27.735Z,17.40
2018-04-08T10:50:56.080Z,18.57
2018-04-08T10:53:24.586Z,18.30
2018-04-08T10:55:52.998Z,16.60
2018-04-08T10:58:21.398Z,18.70
2018-04-08T11:00:49.728Z,18.73
2018-04-08T11:03:18.069Z,18.20
2018-04-08T11:05:46.493Z,17.97
2018-04-08T11:08:14.857Z,19.70
2018-04-08T11:10:43.188Z,19.33
2018-04-08T11:13:11.539Z,16.80
2018-04-08T11:15:39.869Z,18.97
2018-04-08T11:18:08.248Z,18.73
2018-04-08T11:20:36.614Z,18.90
2018-04-08T11:23:04.947Z,18.97
2018-04-08T11:25:33.327Z,18.90
2018-04-08T11:28:01.736Z,19.80
2018-04-08T11:30:30.074Z,18.87
2018-04-08T11:32:58.673Z,19.17
2018-04-08T11:35:27.011Z,17.23
2018-04-08T11:37:55.334Z,18.23
2018-04-08T11:40:23.661Z,18.90
2018-04-08T11:42:52.046Z,17.07
2018-04-08T11:45:20.417Z,18.70
2018-04-08T11:47:49.078Z,18.67
2018-04-08T11:50:17.415Z,18.17
2018-04-08T11:52:45.808Z,19.57
2018-04-08T11:55:14.191Z,18.80
2018-04-08T11:57:42.605Z,18.60
2018-04-08T12:00:10.940Z,19.73
2018-04-08T12:02:39.270Z,18.90
2018-04-08T12:05:07.622Z,18.73
2018-04-08T12:07:35.945Z,18.43
2018-04-08T12:10:04.296Z,20.10
2018-04-08T12:12:32.635Z,18.60
2018-04-08T12:15:01.024Z,19.93
2018-04-08T12:17:29.469Z,19.77
2018-04-08T12:19:57.842Z,21.53
2018-04-08T12:22:26.173Z,20.70
2018-04-08T12:24:54.641Z,21.03
2018-04-08T12:27:22.952Z,22.10
2018-04-08T12:29:51.308Z,20.67
2018-04-08T12:32:19.692Z,21.33
2018-04-08T12:34:48.051Z,21.47
2018-04-08T12:37:16.480Z,21.60
2018-04-08T12:39:45.734Z,21.53
2018-04-08T12:42:14.123Z,21.50
2018-04-08T12:44:42.480Z,21.93
2018-04-08T12:47:10.854Z,22.53
2018-04-08T12:49:39.254Z,21.57
2018-04-08T12:52:07.591Z,20.47
2018-04-08T12:54:36.136Z,20.10
2018-04-08T12:57:04.589Z,20.20
2018-04-08T12:59:32.923Z,20.60
2018-04-08T13:02:01.508Z,21.07
2018-04-08T13:04:29.868Z,21.50
2018-04-08T13:06:58.192Z,20.90
2018-04-08T13:09:26.525Z,21.80
2018-04-08T13:11:54.881Z,20.27
2018-04-08T13:14:23.208Z,20.40
2018-04-08T13:16:51.561Z,22.33
2018-04-08T13:19:19.858Z,21.30
2018-04-08T13:21:48.179Z,21.47
2018-04-08T13:24:16.606Z,21.33
2018-04-08T13:26:44.945Z,20.77
2018-04-08T13:29:13.334Z,22.40
2018-04-08T13:31:41.625Z,21.73
2018-04-08T13:34:10.016Z,22.50
2018-04-08T13:36:38.348Z,21.13
2018-04-08T13:39:06.738Z,21.57
2018-04-08T13:41:35.097Z,22.17
2018-04-08T13:44:03.432Z,21.23
2018-04-08T13:46:31.771Z,20.87
2018-04-08T13:49:00.245Z,22.47
2018-04-08T13:51:28.565Z,22.57
2018-04-08T13:53:56.969Z,22.07
2018-04-08T13:56:25.284Z,23.00
2018-04-08T13:58:53.753Z,20.07
2018-04-08T14:01:22.079Z,25.00
2018-04-08T14:03:50.508Z,23.53
2018-04-08T14:06:18.858Z,22.33
2018-04-08T14:08:47.219Z,24.67
2018-04-08T14:11:15.571Z,25.20
2018-04-08T14:13:43.954Z,22.40
2018-04-08T14:16:12.289Z,23.40
2018-04-08T14:18:40.626Z,21.80
2018-04-08T14:21:08.966Z,23.53
2018-04-08T14:23:37.296Z,24.93
2018-04-08T14:26:05.723Z,24.20
2018-04-08T14:28:34.064Z,25.27
2018-04-08T14:31:02.398Z,24.03
2018-04-08T14:33:30.737Z,23.47
2018-04-08T14:35:59.085Z,24.03
2018-04-08T14:38:27.425Z,24.40
2018-04-08T14:40:55.782Z,23.67
2018-04-08T14:43:24.110Z,24.13
2018-04-08T14:45:52.449Z,25.43
2018-04-08T14:48:20.762Z,25.67
2018-04-08T14:50:49.128Z,22.53
2018-04-08T14:53:17.525Z,24.13
2018-04-08T14:55:45.886Z,23.97
2018-04-08T14:58:14.260Z,24.67
2018-04-08T15:00:42.612Z,24.97
2018-04-08T15:03:11.510Z,25.57
2018-04-08T15:05:39.844Z,23.20
2018-04-08T15:08:08.197Z,25.80
2018-04-08T15:10:36.582Z,26.87
2018-04-08T15:13:04.852Z,26.37
2018-04-08T15:15:33.210Z,27.17
2018-04-08T15:18:01.541Z,25.93
2018-04-08T15:20:29.873Z,25.73
2018-04-08T15:22:58.220Z,28.30
2018-04-08T15:25:26.527Z,25.53
2018-04-08T15:27:54.880Z,27.70
2018-04-08T15:30:23.507Z,26.43
2018-04-08T15:32:51.884Z,26.53
2018-04-08T15:35:20.252Z,29.37
2018-04-08T15:37:48.732Z,27.70
2018-04-08T15:40:17.260Z,26.97
2018-04-08T15:42:45.585Z,28.97
2018-04-08T15:45:13.900Z,28.77
2018-04-08T15:47:42.246Z,32.40
2018-04-08T15:50:10.548Z,29.17
2018-04-08T15:52:38.888Z,29.13
2018-04-08T15:55:07.201Z,28.97
2018-04-08T15:57:35.564Z,29.10
2018-04-08T16:00:03.884Z,29.37
2018-04-08T16:02:32.222Z,27.53
2018-04-08T16:05:00.547Z,29.37
2018-04-08T16:07:28.905Z,30.30
2018-04-08T16:09:57.303Z,32.10
2018-04-08T16:12:25.663Z,31.57
2018-04-08T16:14:53.995Z,30.40
2018-04-08T16:17:22.463Z,30.60
2018-04-08T16:19:50.807Z,29.80
2018-04-08T16:22:19.154Z,30.43
2018-04-08T16:24:47.491Z,29.73
2018-04-08T16:27:15.856Z,32.13
2018-04-08T16:29:44.370Z,31.10
2018-04-08T16:32:12.684Z,29.87
2018-04-08T16:34:41.104Z,31.07
2018-04-08T16:37:09.424Z,30.97
2018-04-08T16:39:37.789Z,31.93
2018-04-08T16:42:06.557Z,30.53
2018-04-08T16:44:34.880Z,34.10
2018-04-08T16:47:03.210Z,31.47
2018-04-08T16:49:31.569Z,34.60
2018-04-08T16:51:59.973Z,33.90
2018-04-08T16:54:28.302Z,34.63
2018-04-08T16:56:56.628Z,31.67
2018-04-08T16:59:24.941Z,34.83
2018-04-08T17:01:53.295Z,35.23
2018-04-08T17:04:21.612Z,34.77
2018-04-08T17:06:49.957Z,34.33
2018-04-08T17:09:18.282Z,34.43
2018-04-08T17:11:46.696Z,32.23
2018-04-08T17:14:15.047Z,33.97
2018-04-08T17:16:43.499Z,33.87
2018-04-08T17:19:11.824Z,34.77
2018-04-08T17:21:40.159Z,32.37
2018-04-08T17:24:08.565Z,34.10
2018-04-08T17:26:36.917Z,32.77
2018-04-08T17:29:05.300Z,35.43
2018-04-08T17:31:33.824Z,36.03
2018-04-08T17:34:02.209Z,34.03
2018-04-08T17:36:30.714Z,34.63
2018-04-08T17:38:59.064Z,34.90
2018-04-08T17:41:27.416Z,34.20
2018-04-08T17:43:56.521Z,33.73
2018-04-08T17:46:24.897Z,34.33
2018-04-08T17:48:53.294Z,31.63
2018-04-08T17:51:21.651Z,35.20
2018-04-08T17:53:50.073Z,35.93
2018-04-08T17:56:18.402Z,35.53
2018-04-08T17:58:46.756Z,36.50
2018-04-08T18:01:15.091Z,33.90
2018-04-08T18:03:43.441Z,41.60
2018-04-08T18:06:11.844Z,37.97
2018-04-08T18:08:40.198Z,37.27
2018-04-08T18:11:08.524Z,36.07
2018-04-08T18:13:36.871Z,37.47
2018-04-08T18:16:05.210Z,38.93
2018-04-08T18:18:33.575Z,36.07
2018-04-08T18:21:01.929Z,37.47
2018-04-08T18:23:30.268Z,36.33
2018-04-08T18:25:58.600Z,38.83
2018-04-08T18:28:26.968Z,37.57
2018-04-08T18:30:55.387Z,37.60
2018-04-08T18:33:23.829Z,38.73
2018-04-08T18:35:52.198Z,37.90
2018-04-08T18:38:20.528Z,41.27
2018-04-08T18:40:48.944Z,39.93
2018-04-08T18:43:17.416Z,40.87
2018-04-08T18:45:45.804Z,37.77
2018-04-08T18:48:14.312Z,37.40
2018-04-08T18:50:42.710Z,36.97
2018-04-08T18:53:11.104Z,36.33
2018-04-08T18:55:39.434Z,33.90
2018-04-08T18:58:07.781Z,35.30
2018-04-08T19:00:36.123Z,42.77
2018-04-08T19:03:04.799Z,37.07
2018-04-08T19:05:33.137Z,35.37
2018-04-08T19:08:01.492Z,37.10
2018-04-08T19:10:29.843Z,37.27
2018-04-08T19:12:58.180Z,38.17
2018-04-08T19:15:26.558Z,38.97
2018-04-08T19:18:00.665Z,37.20
2018-04-08T19:20:30.623Z,36.60
2018-04-08T19:22:58.972Z,39.67
2018-04-08T19:25:27.307Z,34.97
2018-04-08T19:27:55.677Z,37.93
2018-04-08T19:30:24.099Z,33.43
2018-04-08T19:32:52.396Z,37.37
2018-04-08T19:35:20.755Z,39.53
2018-04-08T19:37:49.085Z,39.30
2018-04-08T19:40:18.338Z,40.47
2018-04-08T19:42:46.741Z,34.73
2018-04-08T19:45:15.329Z,42.53
2018-04-08T19:47:43.648Z,38.40
2018-04-08T19:50:12.013Z,35.80
2018-04-08T19:52:40.420Z,39.50
2018-04-08T19:55:08.736Z,41.90
2018-04-08T19:57:37.087Z,40.93
2018-04-08T20:00:05.466Z,42.33
2018-04-08T20:02:33.818Z,38.50
2018-04-08T20:05:02.153Z,39.57
2018-04-08T20:07:30.567Z,39.33
2018-04-08T20:09:59.356Z,41.93
2018-04-08T20:12:27.751Z,41.13
2018-04-08T20:14:56.179Z,37.63
2018-04-08T20:17:24.587Z,40.57
2018-04-08T20:19:52.908Z,41.17
2018-04-08T20:22:21.248Z,40.43
2018-04-08T20:24:49.555Z,39.70
2018-04-08T20:27:18.006Z,44.00
2018-04-08T20:29:46.337Z,41.30
2018-04-08T20:32:14.765Z,43.13
2018-04-08T20:34:43.119Z,40.93
2018-04-08T20:37:11.446Z,44.23
2018-04-08T20:39:39.778Z,42.00
2018-04-08T20:42:08.103Z,40.80
2018-04-08T20:44:36.529Z,41.83
2018-04-08T20:47:04.869Z,41.57
2018-04-08T20:49:33.221Z,40.60
2018-04-08T20:52:02.029Z,42.80
2018-04-08T20:54:30.667Z,44.93
2018-04-08T20:56:58.988Z,42.23
2018-04-08T20:59:27.346Z,44.93
2018-04-08T21:01:55.695Z,41.43
2018-04-08T21:04:24.045Z,43.57
2018-04-08T21:06:52.416Z,42.97
2018-04-08T21:09:20.791Z,44.23
2018-04-08T21:11:49.127Z,41.60
2018-04-08T21:14:17.453Z,41.33
2018-04-08T21:16:45.765Z,43.20
2018-04-08T21:19:14.154Z,42.57
2018-04-08T21:21:42.490Z,42.73
2018-04-08T21:24:10.815Z,44.93
2018-04-08T21:26:39.222Z,42.87
2018-04-08T21:29:07.679Z,41.83
2018-04-08T21:31:35.984Z,44.03
2018-04-08T21:34:04.393Z,43.93
2018-04-08T21:36:32.701Z,45.00
2018-04-08T21:39:01.142Z,47.93
2018-04-08T21:41:29.521Z,49.67
2018-04-08T21:43:57.844Z,46.20
2018-04-08T21:46:26.163Z,46.63
2018-04-08T21:48:54.554Z,44.53
2018-04-08T21:51:22.992Z,50.27
2018-04-08T21:53:51.317Z,50.03
2018-04-08T21:56:19.662Z,50.20
2018-04-08T21:58:48.115Z,50.47
2018-04-08T22:01:16.488Z,52.33
2018-04-08T22:03:44.876Z,47.10
2018-04-08T22:06:13.272Z,47.00
2018-04-08T22:08:41.614Z,52.70
2018-04-08T22:11:09.959Z,48.77
2018-04-08T22:13:38.258Z,49.40
2018-04-08T22:16:06.711Z,47.77
2018-04-08T22:18:35.061Z,50.33
2018-04-08T22:21:03.459Z,49.33
2018-04-08T22:23:31.836Z,49.07
2018-04-08T22:26:00.228Z,46.63
2018-04-08T22:28:28.644Z,48.13
2018-04-08T22:30:56.973Z,51.10
2018-04-08T22:33:25.288Z,55.90
2018-04-08T22:35:53.980Z,53.17
2018-04-08T22:38:22.304Z,52.90
2018-04-08T22:40:50.684Z,51.93
2018-04-08T22:43:19.017Z,48.93
2018-04-08T22:45:47.406Z,48.93
2018-04-08T22:48:15.721Z,51.67
2018-04-08T22:50:44.034Z,50.30
2018-04-08T22:53:12.428Z,50.17
2018-04-08T22:55:40.855Z,54.17
2018-04-08T22:58:09.195Z,52.63
2018-04-08T23:00:37.563Z,47.50
2018-04-08T23:03:05.883Z,50.30
2018-04-08T23:05:34.216Z,51.20
2018-04-08T23:08:02.545Z,50.43
2018-04-08T23:10:30.883Z,53.13
2018-04-08T23:12:59.219Z,49.57
2018-04-08T23:15:27.540Z,52.17
2018-04-08T23:17:55.905Z,50.37
2018-04-08T23:20:24.217Z,51.40
2018-04-08T23:22:52.772Z,52.43
2018-04-08T23:25:21.098Z,56.73
2018-04-08T23:27:49.529Z,60.57
2018-04-08T23:30:17.853Z,54.67
2018-04-08T23:32:46.212Z,49.37
2018-04-08T23:35:14.545Z,51.80
2018-04-08T23:37:42.879Z,55.57
2018-04-08T23:40:11.244Z,53.17
2018-04-08T23:42:39.602Z,48.97
2018-04-08T23:45:07.940Z,54.57
2018-04-08T23:47:36.318Z,55.20
2018-04-08T23:50:04.665Z,51.67
2018-04-08T23:52:32.973Z,52.07
2018-04-08T23:55:01.324Z,53.23
2018-04-08T23:57:29.654Z,49.73
2018-04-08T23:59:57.965Z,53.70
